Latest Weather Observations for Robe Airport

IDS60801

Issued at 6:31 pm CDT Monday 20 February 2017 (issued every 30 minutes, with the page automatically refreshed every 10 minutes)

About weather observations | Map of weather stations | Latest weather observations for SA | Other Formats
Station Details ID: 026105 Name: ROBE AIRFIELD Lat: -37.18 Lon: 139.81 Height: 3.0 m
Data from the previous 72 hours. | See also: Recent months at Robe Airport
Date/Time
CDT
Temp
°C
App
Temp
°C
Dew
Point
°C
Rel
Hum
%
Delta-T
°C
Wind Press
QNH
hPa
Press
MSL
hPa
Rain since
9am
mm
Dir  Spd
km/h
Gust
km/h
Spd
kts
Gust
kts
20/06:30pm 16.8 13.3 7.2 53 4.8 S 15 19 8 10 - 1018.2 -
20/06:00pm 17.1 13.3 7.5 53 4.8 SSW 17 24 9 13 1018.0 1018.0 0.0
20/05:30pm 17.1 13.0 7.7 54 4.7 SSW 19 28 10 15 1017.7 1017.7 0.0
20/05:00pm 17.7 14.0 8.0 53 4.9 SSW 17 26 9 14 1017.6 1017.6 0.0
20/04:30pm 18.1 14.0 7.8 51 5.2 S 19 32 10 17 1017.6 1017.6 0.0
20/04:00pm 18.4 14.4 8.1 51 5.3 S 19 41 10 22 1017.5 1017.5 0.0
20/03:30pm 18.1 13.9 8.4 53 5.0 SSW 20 33 11 18 1017.7 1017.7 0.0
20/03:00pm 18.7 14.7 8.9 53 5.1 S 20 28 11 15 1017.7 1017.7 0.0
20/02:30pm 18.4 14.3 8.7 53 5.0 SSW 20 33 11 18 1018.0 1018.0 0.0
20/02:00pm 18.3 14.2 8.8 54 4.9 SSW 20 32 11 17 1017.9 1017.9 0.0
20/01:30pm 18.3 14.0 7.7 50 5.4 SW 20 32 11 17 1017.9 1017.9 0.0
20/01:00pm 18.4 14.1 7.8 50 5.4 SSW 20 32 11 17 1018.0 1018.0 0.0
20/12:30pm 18.0 13.3 7.7 51 5.2 SSW 22 32 12 17 1018.0 1018.0 0.0
20/12:00pm 17.4 14.0 7.5 52 5.0 SW 15 22 8 12 1018.3 1018.3 0.0
20/11:30am 16.8 13.0 7.7 55 4.6 SSW 17 24 9 13 1018.4 1018.4 0.0
20/11:00am 17.2 14.7 8.4 56 4.5 SW 11 20 6 11 1018.3 1018.3 0.0
20/10:30am 16.4 13.0 7.6 56 4.4 SSW 15 22 8 12 1018.3 1018.3 0.0
20/10:00am 16.5 13.2 8.2 58 4.2 SSW 15 20 8 11 1018.1 1018.1 0.0
20/09:30am 16.0 12.2 7.7 58 4.1 SSW 17 20 9 11 1018.0 1018.0 0.0
20/09:00am 15.5 12.6 8.3 62 3.6 SSW 13 19 7 10 1017.8 1017.8 0.8
20/08:30am 14.9 12.4 8.2 64 3.4 SSW 11 15 6 8 1017.6 1017.6 0.8
20/08:00am 12.6 10.8 7.9 73 2.3 SSW 7 11 4 6 1017.2 1017.2 0.8
20/07:30am 11.9 10.0 6.6 70 2.5 SSW 6 7 3 4 1016.7 1016.7 0.8
20/07:00am 12.2 10.9 7.7 74 2.2 SSW 4 6 2 3 1016.4 1016.4 0.8
20/06:30am 13.1 10.9 8.0 71 2.5 S 9 13 5 7 1016.1 1016.1 0.8
20/06:00am 13.3 10.8 8.2 71 2.5 SSW 11 15 6 8 1015.8 1015.8 0.8
20/05:30am 12.9 9.6 8.2 73 2.3 SSW 15 20 8 11 1015.6 1015.6 0.8
20/05:00am 11.9 8.5 6.0 67 2.8 SSW 13 17 7 9 1015.5 1015.5 0.8
20/04:30am 11.6 8.6 5.9 68 2.7 SSW 11 15 6 8 1015.4 1015.4 0.8
20/04:00am 11.9 8.8 5.5 65 3.0 SSW 11 19 6 10 1015.4 1015.4 0.8
20/03:30am 12.4 8.5 6.9 69 2.6 SSW 17 22 9 12 1015.3 1015.3 0.8
20/03:00am 12.9 9.2 8.0 72 2.4 S 17 22 9 12 1015.3 1015.3 0.8
20/02:30am 12.9 10.2 8.8 76 2.1 SSW 13 20 7 11 1015.4 1015.4 0.8
20/02:00am 12.9 10.2 9.0 77 2.0 SW 13 24 7 13 1015.6 1015.6 0.4
20/01:30am 13.1 10.7 8.6 74 2.2 SSW 11 15 6 8 1015.7 1015.7 0.4
20/01:00am 13.0 10.0 7.7 70 2.6 SSW 13 17 7 9 1015.8 1015.8 0.4
20/12:30am 13.0 9.7 7.9 71 2.5 SSW 15 20 8 11 1015.7 1015.7 0.4
20/12:00am 13.2 9.7 8.7 74 2.3 SSW 17 24 9 13 1015.7 1015.7 0.4
 
Date/Time
CDT
Temp
°C
App
Temp
°C
Dew
Point
°C
Rel
Hum
%
Delta-T
°C
Wind Press
QNH
hPa
Press
MSL
hPa
Rain since
9am
mm
Dir  Spd
km/h
Gust
km/h
Spd
kts
Gust
kts
19/11:30pm 13.3 10.4 9.7 79 1.8 SSW 15 22 8 12 1015.9 1015.9 0.4
19/11:00pm 13.6 8.9 9.3 75 2.2 SSW 24 41 13 22 1015.9 1015.9 0.4
19/10:59pm 13.9 9.2 9.3 74 2.3 SSW 24 41 13 22 1015.8 1015.8 0.4
19/10:30pm 13.8 10.5 6.4 61 3.5 SSW 13 19 7 10 1015.7 1015.7 0.4
19/10:00pm 12.9 9.7 6.9 67 2.9 SSW 13 19 7 10 1015.8 1015.8 0.4
19/09:30pm 13.3 8.8 6.2 62 3.4 SSW 19 26 10 14 1015.6 1015.6 0.4
19/09:00pm 13.4 8.6 5.6 59 3.7 SSW 20 30 11 16 1015.5 1015.5 0.4
19/08:30pm 13.3 9.1 5.9 61 3.5 SSW 17 22 9 12 1015.3 1015.3 0.4
19/08:00pm 13.9 8.5 6.3 60 3.6 SSW 24 33 13 18 1015.0 1015.0 0.4
19/07:30pm 14.5 9.1 6.3 58 3.9 SSW 24 33 13 18 1014.6 1014.6 0.4
19/07:00pm 14.8 9.3 7.4 61 3.6 SSW 26 37 14 20 1014.4 1014.4 0.4
19/06:30pm 15.9 10.1 6.3 53 4.7 SSW 26 35 14 19 1014.0 1014.0 0.4
19/06:00pm 15.7 9.9 6.4 54 4.5 SSW 26 41 14 22 1014.0 1014.0 0.4
19/05:30pm 15.9 11.2 7.9 59 4.0 SSW 22 35 12 19 1014.0 1014.0 0.4
19/05:00pm 16.6 10.7 7.5 55 4.6 SSW 28 44 15 24 1013.8 1013.8 0.4
19/04:30pm 16.6 10.0 7.8 56 4.4 SSW 32 43 17 23 1013.9 1013.9 0.4
19/04:00pm 17.1 11.2 7.7 54 4.7 SSW 28 43 15 23 1013.8 1013.8 0.4
19/03:30pm 15.7 10.9 8.9 64 3.5 SSW 24 33 13 18 1013.9 1013.9 0.4
19/03:00pm 17.2 11.4 8.1 55 4.6 SW 28 39 15 21 1013.9 1013.9 0.4
19/02:30pm 17.2 11.4 9.4 60 4.1 SSW 30 43 16 23 1013.8 1013.8 0.4
19/02:00pm 16.9 11.5 11.0 68 3.2 SSW 30 43 16 23 1014.1 1014.1 0.4
19/01:30pm 17.3 12.6 10.7 65 3.5 SSW 26 37 14 20 1014.0 1014.0 0.4
19/01:00pm 16.9 10.6 9.1 60 4.0 SW 32 43 17 23 1013.9 1013.9 0.4
19/12:30pm 17.3 12.0 11.3 68 3.2 SSW 30 41 16 22 1014.2 1014.2 0.4
19/12:07pm 17.1 12.2 11.2 68 3.2 SW 28 52 15 28 1014.3 1014.3 0.4
19/12:00pm 16.5 11.5 10.8 69 3.0 SW 28 43 15 23 1014.4 1014.4 0.4
19/11:32am 15.9 10.7 10.2 69 3.0 SSW 28 52 15 28 1014.6 1014.6 0.2
19/11:30am 17.2 12.6 11.0 67 3.3 SSW 26 37 14 20 1014.6 1014.6 0.2
19/11:04am 15.9 10.0 10.4 70 2.9 SSW 32 50 17 27 1014.6 1014.6 0.2
19/11:00am 15.9 9.4 10.2 69 3.0 SSW 35 52 19 28 1014.5 1014.5 0.2
19/10:36am 16.3 11.1 11.7 74 2.5 SW 30 48 16 26 1014.4 1014.4 0.2
19/10:30am 16.8 12.1 11.9 73 2.7 SSW 28 43 15 23 1014.5 1014.5 0.2
19/10:00am 14.7 10.8 12.0 84 1.5 SW 24 37 13 20 1014.6 1014.6 0.2
19/09:30am 15.4 10.9 10.2 71 2.7 SSW 24 39 13 21 1014.3 1014.3 0.0
19/09:00am 14.9 11.4 10.3 74 2.4 SW 19 28 10 15 1014.1 1014.1 3.2
19/08:30am 13.4 9.1 10.9 85 1.3 SW 24 39 13 21 1014.0 1014.0 3.2
19/08:00am 13.7 8.5 10.3 80 1.8 SW 28 43 15 23 1013.8 1013.8 2.6
19/07:30am 14.0 9.2 10.2 78 2.0 SW 26 39 14 21 1013.7 1013.7 2.6
19/07:00am 13.7 10.1 9.9 78 2.0 SW 19 28 10 15 1013.5 1013.5 2.6
19/06:30am 13.4 8.7 10.8 84 1.4 SW 26 43 14 23 1013.4 1013.4 2.6
19/06:00am 12.9 10.4 11.1 89 0.9 WSW 15 32 8 17 1013.2 1013.2 2.6
19/05:30am 12.9 9.2 10.1 83 1.4 WSW 20 41 11 22 1013.1 1013.1 2.4
19/05:00am 12.9 9.9 10.8 87 1.1 SW 17 26 9 14 1013.1 1013.1 2.4
19/04:30am 13.5 10.5 10.7 83 1.5 WSW 17 30 9 16 1013.1 1013.1 2.2
19/04:00am 12.9 10.0 11.0 88 1.0 SW 17 24 9 13 1013.3 1013.3 2.2
19/03:30am 13.7 9.7 10.3 80 1.8 SW 22 37 12 20 1013.5 1013.5 0.8
19/03:00am 13.5 10.6 9.7 78 1.9 WSW 15 26 8 14 1013.6 1013.6 0.8
19/02:30am 13.2 10.3 9.6 79 1.8 SW 15 28 8 15 1014.0 1014.0 0.8
19/02:00am 12.8 9.2 10.7 87 1.1 SSW 20 35 11 19 1014.4 1014.4 0.8
19/01:30am 13.2 8.8 10.4 83 1.5 SW 24 35 13 19 1014.8 1014.8 0.6
19/01:00am 14.8 11.7 8.7 67 3.1 SW 15 26 8 14 1014.8 1014.8 0.6
19/12:30am 14.2 10.4 7.7 65 3.2 SW 17 26 9 14 1014.9 1014.9 0.6
19/12:00am 14.7 11.2 8.9 68 2.9 SW 17 26 9 14 1015.0 1015.0 0.6
 
Date/Time
CDT
Temp
°C
App
Temp
°C
Dew
Point
°C
Rel
Hum
%
Delta-T
°C
Wind Press
QNH
hPa
Press
MSL
hPa
Rain since
9am
mm
Dir  Spd
km/h
Gust
km/h
Spd
kts
Gust
kts
18/11:30pm 14.4 10.7 8.1 66 3.1 SW 17 26 9 14 1015.1 1015.1 0.6
18/11:00pm 14.1 10.9 8.3 68 2.9 SW 15 28 8 15 1015.1 1015.1 0.6
18/10:30pm 14.1 10.5 8.5 69 2.8 SW 17 28 9 15 1015.4 1015.4 0.6
18/10:00pm 13.8 10.4 7.6 66 3.0 SW 15 24 8 13 1015.4 1015.4 0.6
18/09:30pm 13.6 10.5 8.9 73 2.4 SW 15 26 8 14 1015.4 1015.4 0.6
18/09:00pm 14.1 10.4 9.3 73 2.4 SW 19 33 10 18 1015.3 1015.3 0.6
18/08:30pm 13.2 10.3 8.1 71 2.5 SW 13 20 7 11 1015.1 1015.1 0.6
18/08:00pm 13.1 8.7 8.8 75 2.2 SSW 22 37 12 20 1015.2 1015.2 0.6
18/07:30pm 14.4 10.1 7.0 61 3.6 SW 19 28 10 15 1014.8 1014.8 0.6
18/07:00pm 15.0 9.9 7.8 62 3.6 SW 24 37 13 20 1014.7 1014.7 0.6
18/06:30pm 16.3 11.9 6.7 53 4.7 SW 19 30 10 16 1014.6 1014.6 0.6
18/06:00pm 16.2 11.0 7.4 56 4.4 SW 24 35 13 19 1014.5 1014.5 0.6
18/05:30pm 15.6 11.9 7.9 60 3.9 SW 17 26 9 14 1014.5 1014.5 0.6
18/05:00pm 14.9 11.3 8.4 65 3.3 SW 17 32 9 17 1014.6 1014.6 0.6
18/04:30pm 16.6 11.8 7.5 55 4.6 SW 22 32 12 17 1014.4 1014.4 0.6
18/04:00pm 17.3 13.2 7.9 54 4.8 SW 19 30 10 16 1014.5 1014.5 0.6
18/03:30pm 18.2 14.0 8.2 52 5.1 SW 20 30 11 16 1014.6 1014.6 0.6
18/03:00pm 16.9 12.1 7.3 53 4.8 WSW 22 32 12 17 1014.7 1014.7 0.4
18/02:30pm 16.8 12.4 7.4 54 4.7 SW 20 32 11 17 1014.8 1014.8 0.4
18/02:00pm 16.9 12.9 8.3 57 4.4 SW 19 32 10 17 1014.7 1014.7 0.4
18/01:30pm 16.8 13.5 9.7 63 3.7 WSW 17 30 9 16 1014.5 1014.5 0.4
18/01:00pm 15.1 13.8 12.4 84 1.5 W 11 17 6 9 1014.7 1014.7 0.4
18/12:30pm 14.9 11.5 9.1 68 3.0 WSW 17 33 9 18 1015.0 1015.0 0.0
18/12:00pm 15.7 13.0 8.9 64 3.5 W 13 20 7 11 1014.7 1014.7 0.0
18/11:30am 16.6 11.4 8.8 60 4.0 SW 26 46 14 25 1014.6 1014.6 0.0
18/11:00am 16.7 12.3 7.4 54 4.6 SW 20 30 11 16 1014.3 1014.3 0.0
18/10:30am 16.9 13.4 8.6 58 4.3 SW 17 24 9 13 1014.1 1014.1 0.0
18/10:00am 16.8 13.2 8.5 58 4.2 SW 17 28 9 15 1014.0 1014.0 0.0
18/09:30am 16.4 12.5 8.6 60 4.0 SW 19 30 10 16 1013.9 1013.9 0.0
18/09:00am 15.5 12.9 7.8 60 3.8 WSW 11 20 6 11 1013.7 1013.7 1.2
18/08:30am 14.2 9.3 7.0 62 3.5 SW 22 39 12 21 1013.6 1013.6 1.2
18/08:00am 14.9 11.2 6.5 57 4.1 SW 15 24 8 13 1013.0 1013.0 1.2
18/07:30am 13.3 11.5 8.0 70 2.6 WSW 7 13 4 7 1012.8 1012.8 1.2
18/07:00am 13.0 10.5 8.1 72 2.4 W 11 26 6 14 1012.4 1012.4 1.2
18/06:30am 12.5 10.4 6.5 67 2.9 WSW 7 13 4 7 1012.0 1012.0 1.2
18/06:00am 12.9 9.2 6.3 64 3.1 SW 15 26 8 14 1011.9 1011.9 1.2
18/05:30am 13.5 9.9 6.8 64 3.2 WSW 15 26 8 14 1011.7 1011.7 1.2
18/05:00am 13.3 10.0 6.6 64 3.2 SW 13 20 7 11 1011.7 1011.7 1.2
18/04:30am 13.8 10.3 7.1 64 3.3 WSW 15 26 8 14 1011.8 1011.8 1.2
18/04:00am 14.2 10.6 6.6 60 3.7 WSW 15 24 8 13 1011.9 1011.9 1.2
18/03:30am 13.5 10.3 6.8 64 3.2 WSW 13 24 7 13 1011.8 1011.8 1.2
18/03:00am 13.2 10.9 7.6 69 2.7 WSW 9 15 5 8 1012.0 1012.0 1.2
18/02:30am 13.1 10.2 8.0 71 2.5 SW 13 20 7 11 1012.1 1012.1 1.2
18/02:00am 13.1 9.6 7.3 68 2.8 SW 15 24 8 13 1012.3 1012.3 1.2
18/01:30am 13.5 9.8 9.4 76 2.1 SW 19 32 10 17 1012.6 1012.6 1.2
18/01:00am 13.5 11.0 8.1 70 2.7 SW 11 20 6 11 1012.6 1012.6 1.2
18/12:30am 14.0 11.2 8.4 69 2.8 SW 13 20 7 11 1012.7 1012.7 1.2
18/12:00am 13.8 10.3 8.6 71 2.6 SW 17 22 9 12 1012.8 1012.8 1.2
 
Date/Time
CDT
Temp
°C
App
Temp
°C
Dew
Point
°C
Rel
Hum
%
Delta-T
°C
Wind Press
QNH
hPa
Press
MSL
hPa
Rain since
9am
mm
Dir  Spd
km/h
Gust
km/h
Spd
kts
Gust
kts
17/11:30pm 14.2 11.6 9.4 73 2.5 SW 13 22 7 12 1013.0 1013.0 1.2
17/11:00pm 13.8 11.4 10.0 78 2.0 WSW 13 20 7 11 1013.1 1013.1 1.2
17/10:30pm 12.9 12.1 11.0 88 1.0 WSW 6 9 3 5 1013.1 1013.1 1.2
17/10:00pm 13.3 9.9 11.4 88 1.0 SW 20 39 11 21 1013.2 1013.2 1.0
17/09:50pm 13.9 10.3 10.7 81 1.7 WSW 20 48 11 26 1013.4 1013.4 1.0
17/09:48pm 14.6 11.6 10.8 78 2.0 WSW 17 48 9 26 1013.3 1013.3 1.0
17/09:30pm 14.4 13.0 11.0 80 1.8 SW 9 17 5 9 1013.0 1013.0 1.0
17/09:00pm 14.3 11.5 11.3 82 1.6 SW 17 26 9 14 1012.8 1012.8 1.0
17/08:30pm 16.1 14.2 10.4 69 3.0 WSW 11 22 6 12 1012.4 1012.4 1.0
17/08:00pm 16.1 14.2 10.4 69 3.0 WSW 11 17 6 9 1012.2 1012.2 1.0
17/07:30pm 16.2 13.2 10.7 70 2.9 SW 17 28 9 15 1011.9 1011.9 1.0
17/07:00pm 17.4 14.6 10.1 62 3.9 WSW 15 26 8 14 1011.6 1011.6 1.0

Other Formats:

Comma delimited format used in spreadsheet applications
http://www.bom.gov.au/fwo/IDS60801/IDS60801.95816.axf

JavaScript Object Notation format (JSON) in row-major order
http://www.bom.gov.au/fwo/IDS60801/IDS60801.95816.json